EPKT/KTW METAR and TAF weather

Enter ICAO airport designator
Station Type Date Time Source
EPKT METAR 2019/02/23 02:30 UTC NOAA

EPKT 230230Z VRB02KT CAVOK M08/M12 Q1042


Station Type Date Time Source
EPKT Decoded METAR 2019/02/23 02:30 UTC NOAA

Katowice, Poland (EPKT) 50-14N 019-02E 284M
Feb 22, 2019 - 09:30 PM EST / 2019.02.23 0230 UTC
Wind: Variable at 2 MPH (2 KT):0
Visibility: greater than 7 mile(s):0
Temperature: 17 F (-8 C)
Dew Point: 10 F (-12 C)
Relative Humidity: 72%
Pressure (altimeter): 30.77 in. Hg (1042 hPa)
ob: EPKT 230230Z VRB02KT CAVOK M08/M12 Q1042
cycle: 2

Station Type Date Time Source
EPKT TAF 2019/02/22 18:33 UTC NOAA

TAF EPKT 221730Z 2218/2318 02010KT CAVOK
BECMG 2314/2317 VRB02KT


Example: see airport list